sensor_id;sensor_type;location;lat;lon;timestamp;temperature;humidity
41168;DHT22;26906;45.658;9.272;2023-04-06T05:34:59;5.30;99.90
41168;DHT22;26906;45.658;9.272;2023-04-06T05:37:26;5.40;99.90
41168;DHT22;26906;45.658;9.272;2023-04-06T05:39:52;5.50;99.90
41168;DHT22;26906;45.658;9.272;2023-04-06T05:42:19;5.70;99.90
41168;DHT22;26906;45.658;9.272;2023-04-06T05:45:11;5.70;99.90
41168;DHT22;26906;45.658;9.272;2023-04-06T05:47:43;5.90;99.90
41168;DHT22;26906;45.658;9.272;2023-04-06T05:50:19;6.10;99.90
41168;DHT22;26906;45.658;9.272;2023-04-06T05:52:45;6.40;99.90
41168;DHT22;26906;45.658;9.272;2023-04-06T05:55:13;6.50;99.90
41168;DHT22;26906;45.658;9.272;2023-04-06T05:57:42;6.80;99.90
41168;DHT22;26906;45.658;9.272;2023-04-06T06:00:09;7.00;99.90
41168;DHT22;26906;45.658;9.272;2023-04-06T06:02:43;7.20;99.90
41168;DHT22;26906;45.658;9.272;2023-04-06T06:05:14;7.40;99.90
41168;DHT22;26906;45.658;9.272;2023-04-06T06:07:41;7.50;99.90
41168;DHT22;26906;45.658;9.272;2023-04-06T06:10:07;7.80;99.90
41168;DHT22;26906;45.658;9.272;2023-04-06T06:12:35;8.00;99.90
41168;DHT22;26906;45.658;9.272;2023-04-06T06:15:02;8.20;99.90
41168;DHT22;26906;45.658;9.272;2023-04-06T06:17:30;8.40;99.90
41168;DHT22;26906;45.658;9.272;2023-04-06T06:19:56;8.60;99.90
41168;DHT22;26906;45.658;9.272;2023-04-06T06:22:21;8.70;99.90
41168;DHT22;26906;45.658;9.272;2023-04-06T06:24:47;8.90;99.90
41168;DHT22;26906;45.658;9.272;2023-04-06T06:27:16;9.10;99.90
41168;DHT22;26906;45.658;9.272;2023-04-06T06:29:41;9.40;99.90
41168;DHT22;26906;45.658;9.272;2023-04-06T06:32:07;9.60;99.90
41168;DHT22;26906;45.658;9.272;2023-04-06T06:34:35;9.80;99.90
41168;DHT22;26906;45.658;9.272;2023-04-06T06:37:03;10.00;99.90
41168;DHT22;26906;45.658;9.272;2023-04-06T06:39:30;10.30;99.90
41168;DHT22;26906;45.658;9.272;2023-04-06T06:41:55;10.50;99.90
41168;DHT22;26906;45.658;9.272;2023-04-06T06:44:40;10.70;99.90
41168;DHT22;26906;45.658;9.272;2023-04-06T06:47:05;11.00;99.90
41168;DHT22;26906;45.658;9.272;2023-04-06T06:49:31;11.10;99.90
41168;DHT22;26906;45.658;9.272;2023-04-06T06:51:57;11.30;99.90
41168;DHT22;26906;45.658;9.272;2023-04-06T06:54:23;11.60;99.90
41168;DHT22;26906;45.658;9.272;2023-04-06T06:56:49;11.80;99.90
41168;DHT22;26906;45.658;9.272;2023-04-06T06:59:15;11.90;99.90
41168;DHT22;26906;45.658;9.272;2023-04-06T07:01:42;12.10;99.90
41168;DHT22;26906;45.658;9.272;2023-04-06T07:04:07;12.30;99.90
41168;DHT22;26906;45.658;9.272;2023-04-06T07:06:37;12.50;99.90
41168;DHT22;26906;45.658;9.272;2023-04-06T07:09:03;12.60;99.60
41168;DHT22;26906;45.658;9.272;2023-04-06T07:11:29;12.70;99.90
41168;DHT22;26906;45.658;9.272;2023-04-06T07:13:55;13.00;99.80
41168;DHT22;26906;45.658;9.272;2023-04-06T07:16:21;13.20;99.50
41168;DHT22;26906;45.658;9.272;2023-04-06T07:18:47;13.50;98.20
41168;DHT22;26906;45.658;9.272;2023-04-06T07:21:13;13.60;99.20
41168;DHT22;26906;45.658;9.272;2023-04-06T07:23:39;13.70;97.60
41168;DHT22;26906;45.658;9.272;2023-04-06T07:26:06;13.60;95.30
41168;DHT22;26906;45.658;9.272;2023-04-06T07:28:32;13.70;92.40
41168;DHT22;26906;45.658;9.272;2023-04-06T07:30:59;13.70;90.00
41168;DHT22;26906;45.658;9.272;2023-04-06T07:33:25;14.00;90.80
41168;DHT22;26906;45.658;9.272;2023-04-06T07:35:56;14.30;88.20
41168;DHT22;26906;45.658;9.272;2023-04-06T07:38:23;14.20;89.00
41168;DHT22;26906;45.658;9.272;2023-04-06T07:40:50;14.30;89.40
41168;DHT22;26906;45.658;9.272;2023-04-06T07:43:16;14.50;85.90
41168;DHT22;26906;45.658;9.272;2023-04-06T07:45:41;14.40;84.00
41168;DHT22;26906;45.658;9.272;2023-04-06T07:48:08;14.50;83.10
41168;DHT22;26906;45.658;9.272;2023-04-06T07:50:34;14.70;83.50
41168;DHT22;26906;45.658;9.272;2023-04-06T07:53:01;14.80;81.30
41168;DHT22;26906;45.658;9.272;2023-04-06T07:55:29;15.00;81.50
41168;DHT22;26906;45.658;9.272;2023-04-06T07:57:54;15.00;78.90
41168;DHT22;26906;45.658;9.272;2023-04-06T08:00:22;15.00;77.90
41168;DHT22;26906;45.658;9.272;2023-04-06T08:02:48;15.00;78.00
41168;DHT22;26906;45.658;9.272;2023-04-06T08:05:13;15.10;78.80
41168;DHT22;26906;45.658;9.272;2023-04-06T08:07:39;15.10;78.20
41168;DHT22;26906;45.658;9.272;2023-04-06T08:10:05;15.20;79.80
41168;DHT22;26906;45.658;9.272;2023-04-06T08:12:32;15.40;79.10
41168;DHT22;26906;45.658;9.272;2023-04-06T08:14:59;15.50;77.60
41168;DHT22;26906;45.658;9.272;2023-04-06T08:17:25;15.80;78.10
41168;DHT22;26906;45.658;9.272;2023-04-06T08:19:52;15.90;76.30
41168;DHT22;26906;45.658;9.272;2023-04-06T08:22:18;15.60;75.40
41168;DHT22;26906;45.658;9.272;2023-04-06T08:24:44;15.60;75.30
41168;DHT22;26906;45.658;9.272;2023-04-06T08:27:09;15.60;74.70
41168;DHT22;26906;45.658;9.272;2023-04-06T08:29:35;15.70;74.70
41168;DHT22;26906;45.658;9.272;2023-04-06T08:32:01;15.70;74.00
41168;DHT22;26906;45.658;9.272;2023-04-06T08:34:31;15.80;76.60
41168;DHT22;26906;45.658;9.272;2023-04-06T08:36:57;16.00;76.40
41168;DHT22;26906;45.658;9.272;2023-04-06T08:39:23;16.20;75.80
41168;DHT22;26906;45.658;9.272;2023-04-06T08:41:52;16.40;76.10
41168;DHT22;26906;45.658;9.272;2023-04-06T08:44:18;16.60;74.30
41168;DHT22;26906;45.658;9.272;2023-04-06T08:46:44;16.80;74.70
41168;DHT22;26906;45.658;9.272;2023-04-06T08:49:10;16.80;72.40
41168;DHT22;26906;45.658;9.272;2023-04-06T08:51:37;16.80;73.70
41168;DHT22;26906;45.658;9.272;2023-04-06T08:54:04;16.70;72.60
41168;DHT22;26906;45.658;9.272;2023-04-06T08:56:30;16.60;74.10
41168;DHT22;26906;45.658;9.272;2023-04-06T08:58:57;16.60;73.30
41168;DHT22;26906;45.658;9.272;2023-04-06T09:01:26;16.70;75.70
41168;DHT22;26906;45.658;9.272;2023-04-06T09:03:56;17.00;75.60
41168;DHT22;26906;45.658;9.272;2023-04-06T09:06:22;17.10;74.10
41168;DHT22;26906;45.658;9.272;2023-04-06T09:08:47;16.90;72.90
41168;DHT22;26906;45.658;9.272;2023-04-06T09:11:14;17.10;75.10
41168;DHT22;26906;45.658;9.272;2023-04-06T09:13:53;17.30;73.40
41168;DHT22;26906;45.658;9.272;2023-04-06T09:16:20;17.30;71.80
41168;DHT22;26906;45.658;9.272;2023-04-06T09:18:47;17.30;72.90
41168;DHT22;26906;45.658;9.272;2023-04-06T09:21:16;17.10;71.60
41168;DHT22;26906;45.658;9.272;2023-04-06T09:23:42;17.10;73.50
41168;DHT22;26906;45.658;9.272;2023-04-06T09:26:14;17.00;73.50
41168;DHT22;26906;45.658;9.272;2023-04-06T09:28:52;17.20;74.70
41168;DHT22;26906;45.658;9.272;2023-04-06T09:31:24;17.50;73.20
41168;DHT22;26906;45.658;9.272;2023-04-06T09:33:51;17.70;73.90
41168;DHT22;26906;45.658;9.272;2023-04-06T09:36:17;17.80;72.30
41168;DHT22;26906;45.658;9.272;2023-04-06T09:38:57;17.80;70.80
41168;DHT22;26906;45.658;9.272;2023-04-06T09:41:31;17.50;70.90
41168;DHT22;26906;45.658;9.272;2023-04-06T09:46:34;16.90;71.40
41168;DHT22;26906;45.658;9.272;2023-04-06T09:49:04;16.60;71.30
41168;DHT22;26906;45.658;9.272;2023-04-06T09:51:44;16.70;70.50
41168;DHT22;26906;45.658;9.272;2023-04-06T09:54:15;16.80;71.70
41168;DHT22;26906;45.658;9.272;2023-04-06T10:02:11;17.40;70.60
41168;DHT22;26906;45.658;9.272;2023-04-06T10:04:43;17.70;72.70
41168;DHT22;26906;45.658;9.272;2023-04-06T10:07:10;17.80;72.70
41168;DHT22;26906;45.658;9.272;2023-04-06T10:09:46;17.60;70.20
41168;DHT22;26906;45.658;9.272;2023-04-06T10:12:14;17.80;72.60
41168;DHT22;26906;45.658;9.272;2023-04-06T10:14:40;17.80;71.30
41168;DHT22;26906;45.658;9.272;2023-04-06T10:17:07;17.70;69.90
41168;DHT22;26906;45.658;9.272;2023-04-06T10:19:49;17.60;71.70
41168;DHT22;26906;45.658;9.272;2023-04-06T10:22:43;18.00;71.70
41168;DHT22;26906;45.658;9.272;2023-04-06T10:25:16;18.20;71.10
41168;DHT22;26906;45.658;9.272;2023-04-06T10:27:42;18.30;71.20
41168;DHT22;26906;45.658;9.272;2023-04-06T10:30:08;18.40;71.40
41168;DHT22;26906;45.658;9.272;2023-04-06T10:35:08;18.60;71.00
41168;DHT22;26906;45.658;9.272;2023-04-06T10:38:04;18.70;70.80
41168;DHT22;26906;45.658;9.272;2023-04-06T10:40:30;18.90;70.90
41168;DHT22;26906;45.658;9.272;2023-04-06T10:43:10;18.80;70.60
41168;DHT22;26906;45.658;9.272;2023-04-06T10:45:36;18.90;71.20
41168;DHT22;26906;45.658;9.272;2023-04-06T10:48:16;19.00;69.80
41168;DHT22;26906;45.658;9.272;2023-04-06T10:50:53;18.70;69.30
41168;DHT22;26906;45.658;9.272;2023-04-06T10:53:22;18.40;69.70
41168;DHT22;26906;45.658;9.272;2023-04-06T10:55:54;18.80;71.30
41168;DHT22;26906;45.658;9.272;2023-04-06T10:58:23;18.70;70.80
41168;DHT22;26906;45.658;9.272;2023-04-06T11:00:50;18.80;69.10
41168;DHT22;26906;45.658;9.272;2023-04-06T11:03:16;18.50;68.30
41168;DHT22;26906;45.658;9.272;2023-04-06T11:05:47;18.20;69.70
41168;DHT22;26906;45.658;9.272;2023-04-06T11:08:24;18.60;70.20
41168;DHT22;26906;45.658;9.272;2023-04-06T11:10:50;18.90;71.50
41168;DHT22;26906;45.658;9.272;2023-04-06T11:13:16;18.90;68.90
41168;DHT22;26906;45.658;9.272;2023-04-06T11:15:42;18.90;70.00
41168;DHT22;26906;45.658;9.272;2023-04-06T11:18:08;19.30;71.40
41168;DHT22;26906;45.658;9.272;2023-04-06T11:20:34;19.50;71.60
41168;DHT22;26906;45.658;9.272;2023-04-06T11:23:00;19.50;69.50
41168;DHT22;26906;45.658;9.272;2023-04-06T11:25:27;19.70;70.10
41168;DHT22;26906;45.658;9.272;2023-04-06T11:27:53;19.30;69.10
41168;DHT22;26906;45.658;9.272;2023-04-06T11:30:19;19.60;69.40
41168;DHT22;26906;45.658;9.272;2023-04-06T11:32:45;19.70;69.90
41168;DHT22;26906;45.658;9.272;2023-04-06T11:35:21;19.90;68.40
41168;DHT22;26906;45.658;9.272;2023-04-06T11:37:50;20.00;69.30
41168;DHT22;26906;45.658;9.272;2023-04-06T11:40:21;20.10;69.50
41168;DHT22;26906;45.658;9.272;2023-04-06T11:42:54;20.00;68.20
41168;DHT22;26906;45.658;9.272;2023-04-06T11:45:20;19.80;68.80
41168;DHT22;26906;45.658;9.272;2023-04-06T11:47:56;19.70;70.10
41168;DHT22;26906;45.658;9.272;2023-04-06T11:50:23;19.90;69.90
41168;DHT22;26906;45.658;9.272;2023-04-06T11:52:58;19.80;69.70
41168;DHT22;26906;45.658;9.272;2023-04-06T11:55:25;19.90;69.40
41168;DHT22;26906;45.658;9.272;2023-04-06T11:57:51;20.00;67.70
41168;DHT22;26906;45.658;9.272;2023-04-06T12:00:17;20.20;70.30
41168;DHT22;26906;45.658;9.272;2023-04-06T12:02:48;19.70;69.70
41168;DHT22;26906;45.658;9.272;2023-04-06T12:05:14;19.70;71.50
41168;DHT22;26906;45.658;9.272;2023-04-06T12:07:40;19.90;71.00
41168;DHT22;26906;45.658;9.272;2023-04-06T12:10:06;20.10;70.70
41168;DHT22;26906;45.658;9.272;2023-04-06T12:12:32;20.20;70.00
41168;DHT22;26906;45.658;9.272;2023-04-06T12:14:58;20.20;70.20
41168;DHT22;26906;45.658;9.272;2023-04-06T12:17:24;20.00;69.10
41168;DHT22;26906;45.658;9.272;2023-04-06T12:19:50;20.10;69.80
41168;DHT22;26906;45.658;9.272;2023-04-06T12:22:17;20.30;71.30
41168;DHT22;26906;45.658;9.272;2023-04-06T12:24:43;20.20;70.80
41168;DHT22;26906;45.658;9.272;2023-04-06T12:27:09;20.20;70.70
41168;DHT22;26906;45.658;9.272;2023-04-06T12:29:37;20.20;72.30
41168;DHT22;26906;45.658;9.272;2023-04-06T12:32:03;20.20;70.10
41168;DHT22;26906;45.658;9.272;2023-04-06T12:34:29;20.30;71.20
41168;DHT22;26906;45.658;9.272;2023-04-06T12:36:55;20.60;71.40
41168;DHT22;26906;45.658;9.272;2023-04-06T12:39:21;20.80;71.10
41168;DHT22;26906;45.658;9.272;2023-04-06T12:41:48;20.80;71.00
41168;DHT22;26906;45.658;9.272;2023-04-06T12:44:13;20.90;70.90
41168;DHT22;26906;45.658;9.272;2023-04-06T12:46:39;20.80;71.00
41168;DHT22;26906;45.658;9.272;2023-04-06T12:49:06;20.80;70.10
41168;DHT22;26906;45.658;9.272;2023-04-06T12:51:31;20.80;71.10
41168;DHT22;26906;45.658;9.272;2023-04-06T12:53:57;20.80;71.00
41168;DHT22;26906;45.658;9.272;2023-04-06T12:56:23;20.90;71.80
41168;DHT22;26906;45.658;9.272;2023-04-06T12:58:50;21.00;70.90
41168;DHT22;26906;45.658;9.272;2023-04-06T13:01:16;21.20;71.70
41168;DHT22;26906;45.658;9.272;2023-04-06T13:03:43;21.10;69.90
41168;DHT22;26906;45.658;9.272;2023-04-06T13:06:09;21.00;71.00
41168;DHT22;26906;45.658;9.272;2023-04-06T13:08:36;21.20;70.40
41168;DHT22;26906;45.658;9.272;2023-04-06T13:11:05;20.90;69.20
41168;DHT22;26906;45.658;9.272;2023-04-06T13:13:33;20.80;69.70
41168;DHT22;26906;45.658;9.272;2023-04-06T13:16:01;20.70;68.60
41168;DHT22;26906;45.658;9.272;2023-04-06T13:18:29;20.80;68.70
41168;DHT22;26906;45.658;9.272;2023-04-06T13:20:56;21.10;71.00
41168;DHT22;26906;45.658;9.272;2023-04-06T13:23:23;21.20;72.00
41168;DHT22;26906;45.658;9.272;2023-04-06T13:25:57;20.80;70.40
41168;DHT22;26906;45.658;9.272;2023-04-06T13:28:24;20.70;71.30
41168;DHT22;26906;45.658;9.272;2023-04-06T13:30:49;20.50;70.60
41168;DHT22;26906;45.658;9.272;2023-04-06T13:33:15;20.50;71.60
41168;DHT22;26906;45.658;9.272;2023-04-06T13:35:44;20.80;72.10
41168;DHT22;26906;45.658;9.272;2023-04-06T13:38:11;21.00;71.00
41168;DHT22;26906;45.658;9.272;2023-04-06T13:40:39;20.80;71.00
41168;DHT22;26906;45.658;9.272;2023-04-06T13:43:05;20.60;72.10
41168;DHT22;26906;45.658;9.272;2023-04-06T13:45:31;20.50;71.90
41168;DHT22;26906;45.658;9.272;2023-04-06T13:47:57;20.30;71.70
41168;DHT22;26906;45.658;9.272;2023-04-06T13:50:25;20.50;72.50
41168;DHT22;26906;45.658;9.272;2023-04-06T13:52:50;20.60;71.30
41168;DHT22;26906;45.658;9.272;2023-04-06T13:55:16;20.70;71.30
41168;DHT22;26906;45.658;9.272;2023-04-06T13:57:42;20.40;71.50
41168;DHT22;26906;45.658;9.272;2023-04-06T14:00:08;20.40;71.50
41168;DHT22;26906;45.658;9.272;2023-04-06T14:02:36;20.50;70.90
41168;DHT22;26906;45.658;9.272;2023-04-06T14:05:01;20.30;71.50
41168;DHT22;26906;45.658;9.272;2023-04-06T14:07:27;20.30;72.00
41168;DHT22;26906;45.658;9.272;2023-04-06T14:09:53;20.40;71.90
41168;DHT22;26906;45.658;9.272;2023-04-06T14:12:18;20.50;71.80
41168;DHT22;26906;45.658;9.272;2023-04-06T14:14:46;20.40;71.10
41168;DHT22;26906;45.658;9.272;2023-04-06T14:17:12;20.20;70.90
41168;DHT22;26906;45.658;9.272;2023-04-06T14:19:38;20.10;70.90
41168;DHT22;26906;45.658;9.272;2023-04-06T14:22:04;20.40;71.70
41168;DHT22;26906;45.658;9.272;2023-04-06T14:24:30;20.40;71.00
41168;DHT22;26906;45.658;9.272;2023-04-06T14:26:56;20.50;72.20
41168;DHT22;26906;45.658;9.272;2023-04-06T14:29:23;20.40;71.50
41168;DHT22;26906;45.658;9.272;2023-04-06T14:31:49;20.50;71.50
41168;DHT22;26906;45.658;9.272;2023-04-06T14:34:14;20.40;71.50
41168;DHT22;26906;45.658;9.272;2023-04-06T14:36:42;20.20;71.30
41168;DHT22;26906;45.658;9.272;2023-04-06T14:39:08;20.20;72.20
41168;DHT22;26906;45.658;9.272;2023-04-06T14:41:35;20.20;70.70
41168;DHT22;26906;45.658;9.272;2023-04-06T14:44:01;20.00;70.40
41168;DHT22;26906;45.658;9.272;2023-04-06T14:46:27;19.90;71.40
41168;DHT22;26906;45.658;9.272;2023-04-06T14:48:56;19.70;70.90
41168;DHT22;26906;45.658;9.272;2023-04-06T14:51:26;19.70;72.20
41168;DHT22;26906;45.658;9.272;2023-04-06T14:53:55;19.50;70.60
41168;DHT22;26906;45.658;9.272;2023-04-06T14:56:22;19.30;71.20
41168;DHT22;26906;45.658;9.272;2023-04-06T14:58:49;19.20;71.40
41168;DHT22;26906;45.658;9.272;2023-04-06T15:01:16;19.20;71.30
41168;DHT22;26906;45.658;9.272;2023-04-06T15:03:42;19.10;71.00
41168;DHT22;26906;45.658;9.272;2023-04-06T15:06:12;19.10;70.80
41168;DHT22;26906;45.658;9.272;2023-04-06T15:08:40;19.10;71.90
41168;DHT22;26906;45.658;9.272;2023-04-06T15:11:06;19.20;71.40
41168;DHT22;26906;45.658;9.272;2023-04-06T15:13:31;19.20;71.30
41168;DHT22;26906;45.658;9.272;2023-04-06T15:15:57;19.20;71.00
41168;DHT22;26906;45.658;9.272;2023-04-06T15:18:23;19.30;71.00
41168;DHT22;26906;45.658;9.272;2023-04-06T15:20:48;19.10;71.20
41168;DHT22;26906;45.658;9.272;2023-04-06T15:23:14;18.80;69.80
41168;DHT22;26906;45.658;9.272;2023-04-06T15:25:40;18.90;72.10
41168;DHT22;26906;45.658;9.272;2023-04-06T15:28:06;18.90;71.80
41168;DHT22;26906;45.658;9.272;2023-04-06T15:30:32;18.80;72.30
41168;DHT22;26906;45.658;9.272;2023-04-06T15:32:59;18.70;70.80
41168;DHT22;26906;45.658;9.272;2023-04-06T15:35:29;18.70;71.40
41168;DHT22;26906;45.658;9.272;2023-04-06T15:37:56;18.60;71.60
41168;DHT22;26906;45.658;9.272;2023-04-06T15:40:25;18.70;72.20
41168;DHT22;26906;45.658;9.272;2023-04-06T15:42:51;18.80;71.30
41168;DHT22;26906;45.658;9.272;2023-04-06T15:45:17;18.70;71.60
41168;DHT22;26906;45.658;9.272;2023-04-06T15:47:45;18.60;71.50
41168;DHT22;26906;45.658;9.272;2023-04-06T15:50:11;18.70;72.20
41168;DHT22;26906;45.658;9.272;2023-04-06T15:52:38;18.50;72.10
41168;DHT22;26906;45.658;9.272;2023-04-06T15:55:05;18.60;71.50
41168;DHT22;26906;45.658;9.272;2023-04-06T15:57:31;18.50;71.80
41168;DHT22;26906;45.658;9.272;2023-04-06T15:59:57;18.40;72.00
41168;DHT22;26906;45.658;9.272;2023-04-06T16:02:23;18.40;72.80
41168;DHT22;26906;45.658;9.272;2023-04-06T16:04:56;18.40;71.80
41168;DHT22;26906;45.658;9.272;2023-04-06T16:07:22;18.30;72.20
41168;DHT22;26906;45.658;9.272;2023-04-06T16:09:50;18.20;72.50
41168;DHT22;26906;45.658;9.272;2023-04-06T16:12:17;18.10;72.40
41168;DHT22;26906;45.658;9.272;2023-04-06T16:14:43;18.00;72.40
41168;DHT22;26906;45.658;9.272;2023-04-06T16:17:10;17.90;73.30
41168;DHT22;26906;45.658;9.272;2023-04-06T16:19:35;17.80;73.40
41168;DHT22;26906;45.658;9.272;2023-04-06T16:22:01;17.80;73.50
41168;DHT22;26906;45.658;9.272;2023-04-06T16:24:27;17.80;72.90
41168;DHT22;26906;45.658;9.272;2023-04-06T16:26:53;17.70;73.20
41168;DHT22;26906;45.658;9.272;2023-04-06T16:29:19;17.60;73.10
41168;DHT22;26906;45.658;9.272;2023-04-06T16:31:45;17.60;73.70
41168;DHT22;26906;45.658;9.272;2023-04-06T16:34:13;17.50;73.90
41168;DHT22;26906;45.658;9.272;2023-04-06T16:36:39;17.60;73.50
41168;DHT22;26906;45.658;9.272;2023-04-06T16:39:07;17.60;73.50
41168;DHT22;26906;45.658;9.272;2023-04-06T16:41:32;17.50;73.10
41168;DHT22;26906;45.658;9.272;2023-04-06T16:43:58;17.40;73.80
41168;DHT22;26906;45.658;9.272;2023-04-06T16:46:35;17.40;73.70
41168;DHT22;26906;45.658;9.272;2023-04-06T16:49:04;17.30;74.10
41168;DHT22;26906;45.658;9.272;2023-04-06T16:51:31;17.30;74.30
41168;DHT22;26906;45.658;9.272;2023-04-06T16:53:57;17.20;74.30
41168;DHT22;26906;45.658;9.272;2023-04-06T16:56:23;17.10;74.50
41168;DHT22;26906;45.658;9.272;2023-04-06T16:58:49;17.00;74.30
41168;DHT22;26906;45.658;9.272;2023-04-06T17:01:22;17.00;74.70
41168;DHT22;26906;45.658;9.272;2023-04-06T17:03:49;16.90;74.70
41168;DHT22;26906;45.658;9.272;2023-04-06T17:06:16;16.90;74.80
41168;DHT22;26906;45.658;9.272;2023-04-06T17:08:42;16.90;74.80
41168;DHT22;26906;45.658;9.272;2023-04-06T17:11:08;16.80;74.50
41168;DHT22;26906;45.658;9.272;2023-04-06T17:13:34;16.80;74.80
41168;DHT22;26906;45.658;9.272;2023-04-06T17:16:00;16.70;75.20
41168;DHT22;26906;45.658;9.272;2023-04-06T17:18:27;16.70;79.50
41168;DHT22;26906;45.658;9.272;2023-04-06T17:20:56;16.60;75.90
41168;DHT22;26906;45.658;9.272;2023-04-06T17:23:22;16.50;75.90
41168;DHT22;26906;45.658;9.272;2023-04-06T17:25:50;16.50;76.00
41168;DHT22;26906;45.658;9.272;2023-04-06T17:28:15;16.40;76.10
41168;DHT22;26906;45.658;9.272;2023-04-06T17:30:41;16.30;76.40
41168;DHT22;26906;45.658;9.272;2023-04-06T17:33:07;16.20;76.20
41168;DHT22;26906;45.658;9.272;2023-04-06T17:35:34;16.20;76.30
41168;DHT22;26906;45.658;9.272;2023-04-06T17:38:00;16.20;76.50
41168;DHT22;26906;45.658;9.272;2023-04-06T17:40:26;16.10;76.50
41168;DHT22;26906;45.658;9.272;2023-04-06T17:42:52;16.00;77.10
41168;DHT22;26906;45.658;9.272;2023-04-06T17:45:17;16.00;76.60
41168;DHT22;26906;45.658;9.272;2023-04-06T17:47:45;15.90;76.70
41168;DHT22;26906;45.658;9.272;2023-04-06T17:50:10;15.80;76.90
41168;DHT22;26906;45.658;9.272;2023-04-06T17:52:36;15.80;76.90
41168;DHT22;26906;45.658;9.272;2023-04-06T17:55:02;15.80;78.00
41168;DHT22;26906;45.658;9.272;2023-04-06T17:57:29;15.70;77.80
41168;DHT22;26906;45.658;9.272;2023-04-06T17:59:54;15.60;78.10
41168;DHT22;26906;45.658;9.272;2023-04-06T18:02:21;15.60;78.10
41168;DHT22;26906;45.658;9.272;2023-04-06T18:04:53;15.50;78.40
41168;DHT22;26906;45.658;9.272;2023-04-06T18:07:19;15.40;78.70
41168;DHT22;26906;45.658;9.272;2023-04-06T18:09:45;15.40;79.00
41168;DHT22;26906;45.658;9.272;2023-04-06T18:12:11;15.40;79.10
41168;DHT22;26906;45.658;9.272;2023-04-06T18:14:38;15.40;79.10
41168;DHT22;26906;45.658;9.272;2023-04-06T18:17:04;15.20;79.30
41168;DHT22;26906;45.658;9.272;2023-04-06T18:19:32;15.10;79.90
41168;DHT22;26906;45.658;9.272;2023-04-06T18:22:00;15.00;80.10
41168;DHT22;26906;45.658;9.272;2023-04-06T18:24:25;14.90;79.80
41168;DHT22;26906;45.658;9.272;2023-04-06T18:26:52;14.90;80.60
41168;DHT22;26906;45.658;9.272;2023-04-06T18:29:18;14.80;80.70
41168;DHT22;26906;45.658;9.272;2023-04-06T18:31:45;14.80;82.50
41168;DHT22;26906;45.658;9.272;2023-04-06T18:34:16;14.90;81.10
41168;DHT22;26906;45.658;9.272;2023-04-06T18:36:47;14.80;81.00
41168;DHT22;26906;45.658;9.272;2023-04-06T18:39:13;14.90;80.60
41168;DHT22;26906;45.658;9.272;2023-04-06T18:41:40;14.80;80.80
41168;DHT22;26906;45.658;9.272;2023-04-06T18:44:06;14.70;82.20
41168;DHT22;26906;45.658;9.272;2023-04-06T18:46:33;14.60;82.40
41168;DHT22;26906;45.658;9.272;2023-04-06T18:48:59;14.50;82.70
41168;DHT22;26906;45.658;9.272;2023-04-06T18:51:29;14.40;83.40
41168;DHT22;26906;45.658;9.272;2023-04-06T18:53:58;14.40;84.40
41168;DHT22;26906;45.658;9.272;2023-04-06T18:56:24;14.40;85.60
41168;DHT22;26906;45.658;9.272;2023-04-06T18:58:50;14.20;85.30
41168;DHT22;26906;45.658;9.272;2023-04-06T19:01:26;14.00;85.50
41168;DHT22;26906;45.658;9.272;2023-04-06T19:03:53;13.90;85.80
41168;DHT22;26906;45.658;9.272;2023-04-06T19:06:19;13.80;86.50
41168;DHT22;26906;45.658;9.272;2023-04-06T19:08:46;13.80;86.00
41168;DHT22;26906;45.658;9.272;2023-04-06T19:11:12;14.00;85.20
41168;DHT22;26906;45.658;9.272;2023-04-06T19:13:39;14.10;84.30
41168;DHT22;26906;45.658;9.272;2023-04-06T19:16:11;14.00;84.60
41168;DHT22;26906;45.658;9.272;2023-04-06T19:18:38;13.90;85.50
41168;DHT22;26906;45.658;9.272;2023-04-06T19:21:23;13.90;85.80
41168;DHT22;26906;45.658;9.272;2023-04-06T19:23:50;14.00;85.30
41168;DHT22;26906;45.658;9.272;2023-04-06T19:26:18;13.90;85.50
41168;DHT22;26906;45.658;9.272;2023-04-06T19:28:47;13.90;84.60
41168;DHT22;26906;45.658;9.272;2023-04-06T19:31:15;13.90;84.80
41168;DHT22;26906;45.658;9.272;2023-04-06T19:33:42;13.70;85.50
41168;DHT22;26906;45.658;9.272;2023-04-06T19:36:09;13.50;86.50
41168;DHT22;26906;45.658;9.272;2023-04-06T19:38:47;13.40;87.40
41168;DHT22;26906;45.658;9.272;2023-04-06T19:41:15;13.50;87.10
41168;DHT22;26906;45.658;9.272;2023-04-06T19:43:41;13.60;88.00
41168;DHT22;26906;45.658;9.272;2023-04-06T19:46:10;13.60;88.40
41168;DHT22;26906;45.658;9.272;2023-04-06T19:48:35;13.60;89.30
41168;DHT22;26906;45.658;9.272;2023-04-06T19:51:03;13.60;89.80
41168;DHT22;26906;45.658;9.272;2023-04-06T19:53:28;13.50;90.20
41168;DHT22;26906;45.658;9.272;2023-04-06T19:55:54;13.20;90.40
41168;DHT22;26906;45.658;9.272;2023-04-06T19:58:23;13.20;91.30
41168;DHT22;26906;45.658;9.272;2023-04-06T20:00:51;13.10;91.60
41168;DHT22;26906;45.658;9.272;2023-04-06T20:03:17;13.10;91.60
41168;DHT22;26906;45.658;9.272;2023-04-06T20:05:43;13.10;91.80
41168;DHT22;26906;45.658;9.272;2023-04-06T20:08:09;13.00;92.00
41168;DHT22;26906;45.658;9.272;2023-04-06T20:10:34;12.90;92.60
41168;DHT22;26906;45.658;9.272;2023-04-06T20:13:01;12.90;92.90
